Peace — WBF3649 — position and weather

sailwx.info

Track history (hours):
 
Tides and Currents Weather Stations Pressure Air Temp Water Temp Dewpoint Dewpoint Depression Visibility Wind Speed Wind Dir Waves Ship Positions

Peace

Owner: BOWMAN, ERIC L, VENTURA, CA. More information available from US FCC via Universal Licensing System and Coast Guard Vessel Documentation Center.

Last reported at 2018-Feb-20 00:52 UTC. Time now 2018-Feb-20 01:26 UTC.
Position N 34°15' W 119°16'.

Length 20 m.

Type: Diving. MMSI: 367166830.

Date/timePositionNaut miles runAvg speedWind from/ knotsBaromVisibWave heightAir tempDewpointWater temp
2018-Feb-20 00:52N 34°15' W 119°16'0 0.0
2018-Feb-20 00:28N 34°15' W 119°16'0 0.0
2018-Feb-19 23:55N 34°15' W 119°16'0 0.0
2018-Feb-19 23:28N 34°15' W 119°16'0 0.2
2018-Feb-19 22:59N 34°15' W 119°16'4 8.0
2018-Feb-19 22:30N 34°13' W 119°20'5 9.4
2018-Feb-19 22:00N 34°10' W 119°24'6 9.5
2018-Feb-19 21:21N 34°05' W 119°29'3 9.3
2018-Feb-19 20:59N 34°02' W 119°31'3 0.1
2018-Feb-18 22:20N 33°60' W 119°31'3 8.5
2018-Feb-18 22:00N 34°00' W 119°28'1 2.3
2018-Feb-18 21:29N 34°00' W 119°26'0 0.0
2018-Feb-18 20:32N 34°00' W 119°26'0 1.2
2018-Feb-18 20:29N 34°00' W 119°26'1 1.3
2018-Feb-18 19:53N 34°01' W 119°25'0 0.0
2018-Feb-18 19:29N 34°01' W 119°25'0 0.0
2018-Feb-18 18:59N 34°01' W 119°25'0 0.2
2018-Feb-18 18:27N 34°01' W 119°25'1 0.3
2018-Feb-18 14:47N 34°00' W 119°25'2 7.6
2018-Feb-18 14:30N 33°58' W 119°24'4 8.0
2018-Feb-18 14:00N 33°55' W 119°21'4 8.8
2018-Feb-18 13:30N 33°51' W 119°19'5 9.1
2018-Feb-18 13:00N 33°47' W 119°16'5 9.8
2018-Feb-18 12:30N 33°43' W 119°13'5 9.8
2018-Feb-18 11:58N 33°39' W 119°09'5 9.5
2018-Feb-18 11:27N 33°35' W 119°06'7 0.7
2018-Feb-18 00:24N 33°28' W 119°03'1 3.3
2018-Feb-18 00:00N 33°29' W 119°03'1 0.8
2018-Feb-17 23:24N 33°29' W 119°03'0 0.0
2018-Feb-17 23:00N 33°29' W 119°03'0 0.6
2018-Feb-17 22:30N 33°29' W 119°03'1 1.4
2018-Feb-17 21:55N 33°28' W 119°03'3 0.5
2018-Feb-17 15:09N 33°31' W 119°03'2 8.7
2018-Feb-17 14:52N 33°34' W 119°04'3 8.5
2018-Feb-17 14:29N 33°37' W 119°06'4 8.7
2018-Feb-17 14:00N 33°41' W 119°07'5 8.6
2018-Feb-17 13:27N 33°45' W 119°09'4 8.8
2018-Feb-17 12:59N 33°49' W 119°10'4 9.0
2018-Feb-17 12:30N 33°53' W 119°12'6 9.1
2018-Feb-17 11:52N 33°59' W 119°13'3 9.4
2018-Feb-17 11:30N 34°02' W 119°14'6 9.3
2018-Feb-17 10:50N 34°08' W 119°16'4 9.5
2018-Feb-17 10:24N 34°12' W 119°17'2 2.0
2018-Feb-17 09:15N 34°15' W 119°16'0 0.0
2018-Feb-17 08:45N 34°15' W 119°16'0 0.0
2018-Feb-17 08:18N 34°15' W 119°16'0 0.0
2018-Feb-17 07:48N 34°15' W 119°16'0 0.0
2018-Feb-17 06:42N 34°15' W 119°16'0 0.0
2018-Feb-17 06:24N 34°15' W 119°16'0 0.0
2018-Feb-17 06:00N 34°15' W 119°16'0 0.0
2018-Feb-17 05:30N 34°15' W 119°16'0 0.0
2018-Feb-17 05:00N 34°15' W 119°16'0 0.0
2018-Feb-17 04:30N 34°15' W 119°16'0 0.0
2018-Feb-17 03:51N 34°15' W 119°16'0 0.0
2018-Feb-17 02:57N 34°15' W 119°16'0 0.0
2018-Feb-17 02:24N 34°15' W 119°16'0 0.0
2018-Feb-17 01:57N 34°15' W 119°16'0 0.0
2018-Feb-17 01:30N 34°15' W 119°16'0 0.0
2018-Feb-17 00:57N 34°15' W 119°16'0 0.0
2018-Feb-16 22:39N 34°15' W 119°16'0 0.0
2018-Feb-16 22:24N 34°15' W 119°16'0 0.0
2018-Feb-16 22:00N 34°15' W 119°16'0 0.0
2018-Feb-16 21:24N 34°15' W 119°16'0 0.4
2018-Feb-16 20:58N 34°14' W 119°16'0 0.0
2018-Feb-16 20:30N 34°14' W 119°16'0 0.2
2018-Feb-16 19:43N 34°15' W 119°16'0 0.0
2018-Feb-16 19:28N 34°15' W 119°16'0 0.0
2018-Feb-16 18:58N 34°15' W 119°16'0 0.0
2018-Feb-16 18:25N 34°15' W 119°16'0 0.0
2018-Feb-16 17:55N 34°15' W 119°16'0 0.0
2018-Feb-16 17:28N 34°15' W 119°16'0 0.0
2018-Feb-16 16:58N 34°15' W 119°16'0 0.0
2018-Feb-16 16:25N 34°15' W 119°16'0 0.0
2018-Feb-16 15:55N 34°15' W 119°16'0 0.0
2018-Feb-16 15:28N 34°15' W 119°16'0 0.0
2018-Feb-16 14:58N 34°15' W 119°16'0 0.0
2018-Feb-16 14:28N 34°15' W 119°16'0 0.0
2018-Feb-16 13:58N 34°15' W 119°16'0 0.0
2018-Feb-16 13:25N 34°15' W 119°16'0 0.0
2018-Feb-16 12:58N 34°15' W 119°16'0 0.0
2018-Feb-16 12:28N 34°15' W 119°16'0 0.0
2018-Feb-16 11:58N 34°15' W 119°16'0 0.0
2018-Feb-16 11:28N 34°15' W 119°16'0 0.0
2018-Feb-16 10:58N 34°15' W 119°16'0 0.0
2018-Feb-16 10:25N 34°15' W 119°16'0 0.0
2018-Feb-16 09:55N 34°15' W 119°16'0 0.0
2018-Feb-16 09:28N 34°15' W 119°16'0 0.0
2018-Feb-16 08:55N 34°15' W 119°16'0 0.0
2018-Feb-16 08:28N 34°15' W 119°16'0 0.0
2018-Feb-16 07:58N 34°15' W 119°16'0 0.0
2018-Feb-16 07:28N 34°15' W 119°16'0 0.0
2018-Feb-16 06:58N 34°15' W 119°16'0 0.0
2018-Feb-16 06:28N 34°15' W 119°16'0 0.0
2018-Feb-16 05:58N 34°15' W 119°16'0 0.0
2018-Feb-16 05:28N 34°15' W 119°16'0 0.0
2018-Feb-16 04:52N 34°15' W 119°16'0 0.0
2018-Feb-16 04:28N 34°15' W 119°16'0 0.0
2018-Feb-16 03:58N 34°15' W 119°16'0 0.0
2018-Feb-16 03:28N 34°15' W 119°16'0 0.0
2018-Feb-16 02:58N 34°15' W 119°16'0 0.0
2018-Feb-16 02:25N 34°15' W 119°16'0 0.0
2018-Feb-16 01:52N 34°15' W 119°16'0 0.0
2018-Feb-16 01:28N 34°15' W 119°16'0 0.0
2018-Feb-16 00:52N 34°15' W 119°16'0 0.0
2018-Feb-16 00:25N 34°15' W 119°16'0 0.0
2018-Feb-15 23:58N 34°15' W 119°16'0 0.0
2018-Feb-15 23:16N 34°15' W 119°16'0 0.0
2018-Feb-15 22:58N 34°15' W 119°16'0 0.0
2018-Feb-15 22:28N 34°15' W 119°16'0 0.0
2018-Feb-15 21:46N 34°15' W 119°16'0 0.0
2018-Feb-15 21:28N 34°15' W 119°16'0 0.0
2018-Feb-15 19:40N 34°15' W 119°16'0 0.0
2018-Feb-15 19:25N 34°15' W 119°16'0 0.0
2018-Feb-15 18:58N 34°15' W 119°16'0 0.0
2018-Feb-15 18:28N 34°15' W 119°16'0 0.0
2018-Feb-15 17:58N 34°15' W 119°16'0 0.0
2018-Feb-15 17:28N 34°15' W 119°16'0 0.0
2018-Feb-15 16:55N 34°15' W 119°16'0 0.0
2018-Feb-15 16:28N 34°15' W 119°16'0 0.0
2018-Feb-15 15:58N 34°15' W 119°16'0 0.0
2018-Feb-15 15:28N 34°15' W 119°16'0 0.0
2018-Feb-15 14:58N 34°15' W 119°16'0 0.0
2018-Feb-15 14:28N 34°15' W 119°16'0 0.0
2018-Feb-15 13:58N 34°15' W 119°16'0 0.0
2018-Feb-15 13:25N 34°15' W 119°16'0 0.0
2018-Feb-15 12:58N 34°15' W 119°16'0 0.0
2018-Feb-15 12:28N 34°15' W 119°16'0 0.0
2018-Feb-15 11:58N 34°15' W 119°16'0 0.0
2018-Feb-15 11:28N 34°15' W 119°16'0 0.0
2018-Feb-15 10:58N 34°15' W 119°16'0 0.0
2018-Feb-15 10:28N 34°15' W 119°16'0 0.0
2018-Feb-15 09:58N 34°15' W 119°16'0 0.0
2018-Feb-15 09:28N 34°15' W 119°16'0 0.0
2018-Feb-15 08:58N 34°15' W 119°16'0 0.0
2018-Feb-15 08:28N 34°15' W 119°16'0 0.0
2018-Feb-15 07:58N 34°15' W 119°16'0 0.0
2018-Feb-15 07:28N 34°15' W 119°16'0 0.0
2018-Feb-15 06:58N 34°15' W 119°16'0 0.0
2018-Feb-15 06:25N 34°15' W 119°16'0 0.0
2018-Feb-15 05:58N 34°15' W 119°16'0 0.0
2018-Feb-15 05:28N 34°15' W 119°16'0 0.0
2018-Feb-15 04:58N 34°15' W 119°16'0 0.0
2018-Feb-15 04:28N 34°15' W 119°16'0 0.0
2018-Feb-15 03:58N 34°15' W 119°16'0 0.0
2018-Feb-15 02:58N 34°15' W 119°16'0 0.0
2018-Feb-15 02:28N 34°15' W 119°16'0 0.0
2018-Feb-15 01:58N 34°15' W 119°16'0 0.0
2018-Feb-15 01:28N 34°15' W 119°16'0 0.0
2018-Feb-15 00:58N 34°15' W 119°16'0 0.0
2018-Feb-15 00:28N 34°15' W 119°16'0 0.0
2018-Feb-14 23:58N 34°15' W 119°16'0 0.0
2018-Feb-14 23:28N 34°15' W 119°16'0 0.0
2018-Feb-14 22:58N 34°15' W 119°16'0 0.0
2018-Feb-14 22:28N 34°15' W 119°16'0 0.0
2018-Feb-14 21:58N 34°15' W 119°16'0 0.0
2018-Feb-14 21:28N 34°15' W 119°16'0 0.0
2018-Feb-14 20:58N 34°15' W 119°16'0 0.0
2018-Feb-14 20:28N 34°15' W 119°16'0 0.0
2018-Feb-14 19:58N 34°15' W 119°16'0 0.0
2018-Feb-14 19:28N 34°15' W 119°16'0 0.0
2018-Feb-14 18:58N 34°15' W 119°16'0 0.0
2018-Feb-14 18:28N 34°15' W 119°16'0 0.0
2018-Feb-14 17:58N 34°15' W 119°16'0 0.0
2018-Feb-14 17:22N 34°15' W 119°16'0 0.0
2018-Feb-14 16:58N 34°15' W 119°16'0 0.0
2018-Feb-14 16:25N 34°15' W 119°16'0 0.0
2018-Feb-14 15:58N 34°15' W 119°16'0 0.0
2018-Feb-14 15:28N 34°15' W 119°16'0 0.0
2018-Feb-14 14:58N 34°15' W 119°16'0 0.0
2018-Feb-14 14:28N 34°15' W 119°16'0 0.0
2018-Feb-14 13:58N 34°15' W 119°16'0 0.0
2018-Feb-14 13:28N 34°15' W 119°16'0 0.0
2018-Feb-14 12:58N 34°15' W 119°16'0 0.0
2018-Feb-14 12:28N 34°15' W 119°16'0 0.0
2018-Feb-14 11:58N 34°15' W 119°16'0 0.0
2018-Feb-14 11:28N 34°15' W 119°16'0 0.0
2018-Feb-14 10:58N 34°15' W 119°16'0 0.0
2018-Feb-14 10:28N 34°15' W 119°16'0 0.0
2018-Feb-14 09:58N 34°15' W 119°16'0 0.0
2018-Feb-14 09:28N 34°15' W 119°16'0 0.0
2018-Feb-14 08:58N 34°15' W 119°16'0 0.0
2018-Feb-14 08:28N 34°15' W 119°16'0 0.0
2018-Feb-14 07:52N 34°15' W 119°16'0 0.0
2018-Feb-14 07:28N 34°15' W 119°16'0 0.0
2018-Feb-14 06:58N 34°15' W 119°16'0 0.0
2018-Feb-14 06:28N 34°15' W 119°16'0 0.0
2018-Feb-14 05:58N 34°15' W 119°16'0 0.0
2018-Feb-14 05:28N 34°15' W 119°16'0 0.0
2018-Feb-14 04:58N 34°15' W 119°16'0 0.0
2018-Feb-14 04:25N 34°15' W 119°16'0 0.0
2018-Feb-14 03:58N 34°15' W 119°16'0 0.0
2018-Feb-14 03:28N 34°15' W 119°16'0 0.0
2018-Feb-14 02:58N 34°15' W 119°16'0 0.0
2018-Feb-14 02:28N 34°15' W 119°16'0 0.0
2018-Feb-14 01:49N 34°15' W 119°16'0 0.0
2018-Feb-14 01:28N 34°15' W 119°16'0 0.0
2018-Feb-14 00:58N 34°15' W 119°16'0 0.0
2018-Feb-14 00:28N 34°15' W 119°16'0 0.0
2018-Feb-13 23:58N 34°15' W 119°16'0 0.0
2018-Feb-13 23:28N 34°15' W 119°16'0 0.0
2018-Feb-13 22:58N 34°15' W 119°16'0 0.0
2018-Feb-13 22:28N 34°15' W 119°16'0 0.0
2018-Feb-13 21:55N 34°15' W 119°16'0 0.0
2018-Feb-13 21:25N 34°15' W 119°16'0 0.0
2018-Feb-13 17:19N 34°15' W 119°16'0 0.0
2018-Feb-13 16:58N 34°15' W 119°16'0 0.0
2018-Feb-13 16:28N 34°15' W 119°16'0 0.0
2018-Feb-13 15:58N 34°15' W 119°16'0 0.0
2018-Feb-13 15:25N 34°15' W 119°16'0 0.0
2018-Feb-13 14:55N 34°15' W 119°16'0 0.0
2018-Feb-13 14:28N 34°15' W 119°16'0 0.0
2018-Feb-13 13:58N 34°15' W 119°16'0 0.0
2018-Feb-13 13:28N 34°15' W 119°16'0 0.0
2018-Feb-13 12:58N 34°15' W 119°16'0 0.0
2018-Feb-13 12:28N 34°15' W 119°16'0 0.0
2018-Feb-13 11:58N 34°15' W 119°16'0 0.0
2018-Feb-13 11:28N 34°15' W 119°16'0 0.0
2018-Feb-13 10:58N 34°15' W 119°16'0 0.0
2018-Feb-13 10:25N 34°15' W 119°16'0 0.0
2018-Feb-13 09:58N 34°15' W 119°16'0 0.0
2018-Feb-13 09:28N 34°15' W 119°16'0 0.0
2018-Feb-13 08:58N 34°15' W 119°16'0 0.0
2018-Feb-13 08:28N 34°15' W 119°16'0 0.0
2018-Feb-13 07:58N 34°15' W 119°16'0 0.0
2018-Feb-13 07:28N 34°15' W 119°16'0 0.0
2018-Feb-13 06:58N 34°15' W 119°16'0 0.0
2018-Feb-13 06:28N 34°15' W 119°16'0 0.0
2018-Feb-13 05:52N 34°15' W 119°16'0 0.0
2018-Feb-13 05:28N 34°15' W 119°16'0 0.0
2018-Feb-13 04:58N 34°15' W 119°16'0 0.0
2018-Feb-13 04:28N 34°15' W 119°16'0 0.0
2018-Feb-13 03:58N 34°15' W 119°16'0 0.0
2018-Feb-13 03:28N 34°15' W 119°16'0 0.0
2018-Feb-13 02:55N 34°15' W 119°16'0 0.0
2018-Feb-13 02:28N 34°15' W 119°16'0 0.0
2018-Feb-13 01:58N 34°15' W 119°16'0 0.0
2018-Feb-13 01:28N 34°15' W 119°16'0 0.0
2018-Feb-13 00:58N 34°15' W 119°16'0 0.0
2018-Feb-13 00:28N 34°15' W 119°16'0 0.0
2018-Feb-12 23:55N 34°15' W 119°16'0 0.0
2018-Feb-12 23:28N 34°15' W 119°16'0 0.0
2018-Feb-12 22:58N 34°15' W 119°16'0 0.0
2018-Feb-12 22:28N 34°15' W 119°16'0 0.0
2018-Feb-12 21:49N 34°15' W 119°16'0 0.0
2018-Feb-12 21:25N 34°15' W 119°16'0 0.0
2018-Feb-12 20:46N 34°15' W 119°16'0 0.0
2018-Feb-12 20:28N 34°15' W 119°16'0 0.0
2018-Feb-12 19:58N 34°15' W 119°16'0 0.0
2018-Feb-12 19:25N 34°15' W 119°16'0 0.0
2018-Feb-12 18:55N 34°15' W 119°16'0 0.0
2018-Feb-12 18:28N 34°15' W 119°16'0 0.0
2018-Feb-12 17:52N 34°15' W 119°16'0 0.0
2018-Feb-12 17:25N 34°15' W 119°16'0 0.0
2018-Feb-12 16:58N 34°15' W 119°16'0 0.0
2018-Feb-12 16:25N 34°15' W 119°16'0 0.0
2018-Feb-12 15:58N 34°15' W 119°16'0 0.0
2018-Feb-12 15:16N 34°15' W 119°16'0 0.0
2018-Feb-12 14:55N 34°15' W 119°16'0 0.0
2018-Feb-12 14:25N 34°15' W 119°16'0 0.0
2018-Feb-12 13:58N 34°15' W 119°16'0 0.0
2018-Feb-12 13:25N 34°15' W 119°16'0 0.0
2018-Feb-12 12:58N 34°15' W 119°16'0 0.0
2018-Feb-12 12:28N 34°15' W 119°16'0 0.0
2018-Feb-12 11:58N 34°15' W 119°16'0 0.0
2018-Feb-12 11:28N 34°15' W 119°16'0 0.0
2018-Feb-12 10:58N 34°15' W 119°16'0 0.0
2018-Feb-12 10:25N 34°15' W 119°16'0 0.0
2018-Feb-12 09:58N 34°15' W 119°16'0 0.0
2018-Feb-12 09:28N 34°15' W 119°16'0 0.0
2018-Feb-12 08:58N 34°15' W 119°16'0 0.0
2018-Feb-12 08:25N 34°15' W 119°16'0 0.0
2018-Feb-12 07:58N 34°15' W 119°16'0 0.0
2018-Feb-12 07:28N 34°15' W 119°16'0 0.0
2018-Feb-12 06:58N 34°15' W 119°16'0 0.0
2018-Feb-12 06:25N 34°15' W 119°16'0 0.0
2018-Feb-12 05:55N 34°15' W 119°16'0 0.0
2018-Feb-12 05:28N 34°15' W 119°16'0 0.0
2018-Feb-12 04:58N 34°15' W 119°16'0 0.0
2018-Feb-12 04:28N 34°15' W 119°16'0 0.0
2018-Feb-12 03:58N 34°15' W 119°16'0 0.0
2018-Feb-12 03:28N 34°15' W 119°16'0 0.0
2018-Feb-12 02:55N 34°15' W 119°16'2 4.5
2018-Feb-12 02:29N 34°15' W 119°18'7 9.5
2018-Feb-12 01:48N 34°13' W 119°26'3 9.7
2018-Feb-12 01:29N 34°13' W 119°30'5 9.6
2018-Feb-12 00:55N 34°11' W 119°36'4 9.6
2018-Feb-12 00:29N 34°10' W 119°41'5 9.9
2018-Feb-11 23:58N 34°09' W 119°47'510.0
2018-Feb-11 23:29N 34°07' W 119°52'510.1
2018-Feb-11 22:57N 34°05' W 119°58'510.0
2018-Feb-11 22:30N 34°04' W 120°03'5 9.8
2018-Feb-11 21:57N 34°02' W 120°10'4 8.1
2018-Feb-11 21:28N 34°01' W 120°14'0 0.1
2018-Feb-11 21:00N 34°01' W 120°14'0 0.0
2018-Feb-11 20:29N 34°01' W 120°14'0 0.0
2018-Feb-11 19:55N 34°01' W 120°14'0 0.4
2018-Feb-11 19:20N 34°01' W 120°14'0 0.0
2018-Feb-11 18:55N 34°01' W 120°14'0 0.0
2018-Feb-11 18:27N 34°01' W 120°14'0 0.7
2018-Feb-11 18:00N 34°02' W 120°14'0 0.0
2018-Feb-11 17:28N 34°02' W 120°14'0 0.0
2018-Feb-11 16:58N 34°02' W 120°14'1 1.5
2018-Feb-11 16:30N 34°02' W 120°15'1 2.8
2018-Feb-11 16:00N 34°03' W 120°16'0 0.1
2018-Feb-11 15:27N 34°03' W 120°16'0 0.0
2018-Feb-11 15:00N 34°03' W 120°16'3 5.8
2018-Feb-11 14:30N 34°03' W 120°19'2 2.8
2018-Feb-11 13:58N 34°03' W 120°21'0 0.0
2018-Feb-11 13:25N 34°03' W 120°21'0 0.1
2018-Feb-11 12:58N 34°03' W 120°21'0 0.0
2018-Feb-11 12:25N 34°03' W 120°21'0 0.0
2018-Feb-11 11:43N 34°03' W 120°21'0 0.0
2018-Feb-11 11:28N 34°03' W 120°21'0 0.0
2018-Feb-11 10:58N 34°03' W 120°21'0 0.0
2018-Feb-11 10:28N 34°03' W 120°21'0 0.0
2018-Feb-11 09:55N 34°03' W 120°21'0 0.0
2018-Feb-11 09:28N 34°03' W 120°21'0 0.0
2018-Feb-11 08:58N 34°03' W 120°21'0 0.0
2018-Feb-11 08:28N 34°03' W 120°21'0 0.0
2018-Feb-11 07:58N 34°03' W 120°21'0 0.0
2018-Feb-11 07:28N 34°03' W 120°21'0 0.0
2018-Feb-11 06:49N 34°03' W 120°21'0 0.1
2018-Feb-11 06:28N 34°03' W 120°21'0 0.0
2018-Feb-11 05:58N 34°03' W 120°21'0 0.1
2018-Feb-11 05:28N 34°03' W 120°21'0 0.1
2018-Feb-11 04:55N 34°03' W 120°21'0 0.0
2018-Feb-11 04:28N 34°03' W 120°21'0 0.0
2018-Feb-11 03:52N 34°03' W 120°21'0 0.0
2018-Feb-11 03:16N 34°03' W 120°21'0 0.0
2018-Feb-11 02:58N 34°03' W 120°21'0 0.0
2018-Feb-11 02:30N 34°03' W 120°21'4 7.4
2018-Feb-11 02:00N 34°02' W 120°17'3 4.8
2018-Feb-11 01:28N 34°01' W 120°14'0 0.0
2018-Feb-11 00:58N 34°01' W 120°14'0 0.4
2018-Feb-11 00:29N 34°01' W 120°14'1 2.0
2018-Feb-11 00:00N 34°01' W 120°13'0 0.0
2018-Feb-10 23:26N 34°01' W 120°13'0 0.1
2018-Feb-10 23:00N 34°01' W 120°13'1 2.3
2018-Feb-10 22:26N 34°01' W 120°14'0 0.0
2018-Feb-10 21:56N 34°01' W 120°14'0 0.0
2018-Feb-10 21:28N 34°01' W 120°14'0 0.0
2018-Feb-10 20:49N 34°01' W 120°14'1 4.0
2018-Feb-10 20:28N 34°01' W 120°13'0 0.0
2018-Feb-10 20:00N 34°01' W 120°13'0 0.0
2018-Feb-10 19:30N 34°01' W 120°13'0 0.0
2018-Feb-10 19:00N 34°01' W 120°13'1 0.9
2018-Feb-10 18:25N 34°01' W 120°12'0 0.0
2018-Feb-10 17:55N 34°01' W 120°12'0 0.0
2018-Feb-10 17:19N 34°01' W 120°12'1 2.7
2018-Feb-10 16:56N 34°01' W 120°13'0 0.0
2018-Feb-10 16:23N 34°01' W 120°13'0 0.0
2018-Feb-10 15:56N 34°01' W 120°13'0 0.1
2018-Feb-10 15:30N 34°01' W 120°13'4 8.7
2018-Feb-10 15:00N 34°03' W 120°08'5 9.3
2018-Feb-10 14:26N 34°04' W 120°02'5 9.2
2018-Feb-10 13:54N 34°05' W 119°57'4 8.5
2018-Feb-10 13:25N 34°06' W 119°52'4 8.7
2018-Feb-10 12:58N 34°08' W 119°47'4 9.1
2018-Feb-10 12:29N 34°09' W 119°42'5 9.5
2018-Feb-10 11:55N 34°10' W 119°36'4 9.7
2018-Feb-10 11:30N 34°11' W 119°31'6 9.7
2018-Feb-10 10:51N 34°13' W 119°24'4 9.4
2018-Feb-10 10:27N 34°14' W 119°19'3 6.5
2018-Feb-10 09:59N 34°15' W 119°16'0 0.0
2018-Feb-10 09:29N 34°15' W 119°16'0 0.0
2018-Feb-10 08:59N 34°15' W 119°16'0 0.0
2018-Feb-10 08:29N 34°15' W 119°16'0 0.0
2018-Feb-10 07:53N 34°15' W 119°16'0 0.0
2018-Feb-10 07:26N 34°15' W 119°16'0 0.0
2018-Feb-10 06:56N 34°15' W 119°16'0 0.0
2018-Feb-10 06:29N 34°15' W 119°16'0 0.0
2018-Feb-10 05:56N 34°15' W 119°16'0 0.0
2018-Feb-10 05:29N 34°15' W 119°16'0 0.0
2018-Feb-10 04:56N 34°15' W 119°16'0 0.0
2018-Feb-10 04:29N 34°15' W 119°16'0 0.0
2018-Feb-10 03:59N 34°15' W 119°16'0 0.0
2018-Feb-10 03:29N 34°15' W 119°16'0 0.0
2018-Feb-10 02:59N 34°15' W 119°16'0 0.0
2018-Feb-10 02:29N 34°15' W 119°16'0 0.0
2018-Feb-10 01:59N 34°15' W 119°16'0 0.0
2018-Feb-10 01:29N 34°15' W 119°16'0 0.0
2018-Feb-10 00:59N 34°15' W 119°16'  
Track history (hours):
 
Tides and Currents Weather Stations Pressure Air Temp Water Temp Dewpoint Dewpoint Depression Visibility Wind Speed Wind Dir Waves Ship Positions

Peace

Owner: BOWMAN, ERIC L, VENTURA, CA. More information available from US FCC via Universal Licensing System and Coast Guard Vessel Documentation Center.

Last reported at 2018-Feb-20 00:52 UTC. Time now 2018-Feb-20 01:26 UTC.
Position N 34°15' W 119°16'.

Length 20 m.

Type: Diving. MMSI: 367166830.

Date/timePositionNaut miles runAvg speedWind from/ knotsBaromVisibWave heightAir tempDewpointWater temp
2018-Feb-20 00:52N 34°15' W 119°16'0 0.0
2018-Feb-20 00:28N 34°15' W 119°16'0 0.0
2018-Feb-19 23:55N 34°15' W 119°16'0 0.0
2018-Feb-19 23:28N 34°15' W 119°16'0 0.2
2018-Feb-19 22:59N 34°15' W 119°16'4 8.0
2018-Feb-19 22:30N 34°13' W 119°20'5 9.4
2018-Feb-19 22:00N 34°10' W 119°24'6 9.5
2018-Feb-19 21:21N 34°05' W 119°29'3 9.3
2018-Feb-19 20:59N 34°02' W 119°31'3 0.1
2018-Feb-18 22:20N 33°60' W 119°31'3 8.5
2018-Feb-18 22:00N 34°00' W 119°28'1 2.3
2018-Feb-18 21:29N 34°00' W 119°26'0 0.0
2018-Feb-18 20:32N 34°00' W 119°26'0 1.2
2018-Feb-18 20:29N 34°00' W 119°26'1 1.3
2018-Feb-18 19:53N 34°01' W 119°25'0 0.0
2018-Feb-18 19:29N 34°01' W 119°25'0 0.0
2018-Feb-18 18:59N 34°01' W 119°25'0 0.2
2018-Feb-18 18:27N 34°01' W 119°25'1 0.3
2018-Feb-18 14:47N 34°00' W 119°25'2 7.6
2018-Feb-18 14:30N 33°58' W 119°24'4 8.0
2018-Feb-18 14:00N 33°55' W 119°21'4 8.8
2018-Feb-18 13:30N 33°51' W 119°19'5 9.1
2018-Feb-18 13:00N 33°47' W 119°16'5 9.8
2018-Feb-18 12:30N 33°43' W 119°13'5 9.8
2018-Feb-18 11:58N 33°39' W 119°09'5 9.5
2018-Feb-18 11:27N 33°35' W 119°06'7 0.7
2018-Feb-18 00:24N 33°28' W 119°03'1 3.3
2018-Feb-18 00:00N 33°29' W 119°03'1 0.8
2018-Feb-17 23:24N 33°29' W 119°03'0 0.0
2018-Feb-17 23:00N 33°29' W 119°03'0 0.6
2018-Feb-17 22:30N 33°29' W 119°03'1 1.4
2018-Feb-17 21:55N 33°28' W 119°03'3 0.5
2018-Feb-17 15:09N 33°31' W 119°03'2 8.7
2018-Feb-17 14:52N 33°34' W 119°04'3 8.5
2018-Feb-17 14:29N 33°37' W 119°06'4 8.7
2018-Feb-17 14:00N 33°41' W 119°07'5 8.6
2018-Feb-17 13:27N 33°45' W 119°09'4 8.8
2018-Feb-17 12:59N 33°49' W 119°10'4 9.0
2018-Feb-17 12:30N 33°53' W 119°12'6 9.1
2018-Feb-17 11:52N 33°59' W 119°13'3 9.4
2018-Feb-17 11:30N 34°02' W 119°14'6 9.3
2018-Feb-17 10:50N 34°08' W 119°16'4 9.5
2018-Feb-17 10:24N 34°12' W 119°17'2 2.0
2018-Feb-17 09:15N 34°15' W 119°16'0 0.0
2018-Feb-17 08:45N 34°15' W 119°16'0 0.0
2018-Feb-17 08:18N 34°15' W 119°16'0 0.0
2018-Feb-17 07:48N 34°15' W 119°16'0 0.0
2018-Feb-17 06:42N 34°15' W 119°16'0 0.0
2018-Feb-17 06:24N 34°15' W 119°16'0 0.0
2018-Feb-17 06:00N 34°15' W 119°16'0 0.0
2018-Feb-17 05:30N 34°15' W 119°16'0 0.0
2018-Feb-17 05:00N 34°15' W 119°16'0 0.0
2018-Feb-17 04:30N 34°15' W 119°16'0 0.0
2018-Feb-17 03:51N 34°15' W 119°16'0 0.0
2018-Feb-17 02:57N 34°15' W 119°16'0 0.0
2018-Feb-17 02:24N 34°15' W 119°16'0 0.0
2018-Feb-17 01:57N 34°15' W 119°16'0 0.0
2018-Feb-17 01:30N 34°15' W 119°16'0 0.0
2018-Feb-17 00:57N 34°15' W 119°16'0 0.0
2018-Feb-16 22:39N 34°15' W 119°16'0 0.0
2018-Feb-16 22:24N 34°15' W 119°16'0 0.0
2018-Feb-16 22:00N 34°15' W 119°16'0 0.0
2018-Feb-16 21:24N 34°15' W 119°16'0 0.4
2018-Feb-16 20:58N 34°14' W 119°16'0 0.0
2018-Feb-16 20:30N 34°14' W 119°16'0 0.2
2018-Feb-16 19:43N 34°15' W 119°16'0 0.0
2018-Feb-16 19:28N 34°15' W 119°16'0 0.0
2018-Feb-16 18:58N 34°15' W 119°16'0 0.0
2018-Feb-16 18:25N 34°15' W 119°16'0 0.0
2018-Feb-16 17:55N 34°15' W 119°16'0 0.0
2018-Feb-16 17:28N 34°15' W 119°16'0 0.0
2018-Feb-16 16:58N 34°15' W 119°16'0 0.0
2018-Feb-16 16:25N 34°15' W 119°16'0 0.0
2018-Feb-16 15:55N 34°15' W 119°16'0 0.0
2018-Feb-16 15:28N 34°15' W 119°16'0 0.0
2018-Feb-16 14:58N 34°15' W 119°16'0 0.0
2018-Feb-16 14:28N 34°15' W 119°16'0 0.0
2018-Feb-16 13:58N 34°15' W 119°16'0 0.0
2018-Feb-16 13:25N 34°15' W 119°16'0 0.0
2018-Feb-16 12:58N 34°15' W 119°16'0 0.0
2018-Feb-16 12:28N 34°15' W 119°16'0 0.0
2018-Feb-16 11:58N 34°15' W 119°16'0 0.0
2018-Feb-16 11:28N 34°15' W 119°16'0 0.0
2018-Feb-16 10:58N 34°15' W 119°16'0 0.0
2018-Feb-16 10:25N 34°15' W 119°16'0 0.0
2018-Feb-16 09:55N 34°15' W 119°16'0 0.0
2018-Feb-16 09:28N 34°15' W 119°16'0 0.0
2018-Feb-16 08:55N 34°15' W 119°16'0 0.0
2018-Feb-16 08:28N 34°15' W 119°16'0 0.0
2018-Feb-16 07:58N 34°15' W 119°16'0 0.0
2018-Feb-16 07:28N 34°15' W 119°16'0 0.0
2018-Feb-16 06:58N 34°15' W 119°16'0 0.0
2018-Feb-16 06:28N 34°15' W 119°16'0 0.0
2018-Feb-16 05:58N 34°15' W 119°16'0 0.0
2018-Feb-16 05:28N 34°15' W 119°16'0 0.0
2018-Feb-16 04:52N 34°15' W 119°16'0 0.0
2018-Feb-16 04:28N 34°15' W 119°16'0 0.0
2018-Feb-16 03:58N 34°15' W 119°16'0 0.0
2018-Feb-16 03:28N 34°15' W 119°16'0 0.0
2018-Feb-16 02:58N 34°15' W 119°16'0 0.0
2018-Feb-16 02:25N 34°15' W 119°16'0 0.0
2018-Feb-16 01:52N 34°15' W 119°16'0 0.0
2018-Feb-16 01:28N 34°15' W 119°16'0 0.0
2018-Feb-16 00:52N 34°15' W 119°16'0 0.0
2018-Feb-16 00:25N 34°15' W 119°16'0 0.0
2018-Feb-15 23:58N 34°15' W 119°16'0 0.0
2018-Feb-15 23:16N 34°15' W 119°16'0 0.0
2018-Feb-15 22:58N 34°15' W 119°16'0 0.0
2018-Feb-15 22:28N 34°15' W 119°16'0 0.0
2018-Feb-15 21:46N 34°15' W 119°16'0 0.0
2018-Feb-15 21:28N 34°15' W 119°16'0 0.0
2018-Feb-15 19:40N 34°15' W 119°16'0 0.0
2018-Feb-15 19:25N 34°15' W 119°16'0 0.0
2018-Feb-15 18:58N 34°15' W 119°16'0 0.0
2018-Feb-15 18:28N 34°15' W 119°16'0 0.0
2018-Feb-15 17:58N 34°15' W 119°16'0 0.0
2018-Feb-15 17:28N 34°15' W 119°16'0 0.0
2018-Feb-15 16:55N 34°15' W 119°16'0 0.0
2018-Feb-15 16:28N 34°15' W 119°16'0 0.0
2018-Feb-15 15:58N 34°15' W 119°16'0 0.0
2018-Feb-15 15:28N 34°15' W 119°16'0 0.0
2018-Feb-15 14:58N 34°15' W 119°16'0 0.0
2018-Feb-15 14:28N 34°15' W 119°16'0 0.0
2018-Feb-15 13:58N 34°15' W 119°16'0 0.0
2018-Feb-15 13:25N 34°15' W 119°16'0 0.0
2018-Feb-15 12:58N 34°15' W 119°16'0 0.0
2018-Feb-15 12:28N 34°15' W 119°16'0 0.0
2018-Feb-15 11:58N 34°15' W 119°16'0 0.0
2018-Feb-15 11:28N 34°15' W 119°16'0 0.0
2018-Feb-15 10:58N 34°15' W 119°16'0 0.0
2018-Feb-15 10:28N 34°15' W 119°16'0 0.0
2018-Feb-15 09:58N 34°15' W 119°16'0 0.0
2018-Feb-15 09:28N 34°15' W 119°16'0 0.0
2018-Feb-15 08:58N 34°15' W 119°16'0 0.0
2018-Feb-15 08:28N 34°15' W 119°16'0 0.0
2018-Feb-15 07:58N 34°15' W 119°16'0 0.0
2018-Feb-15 07:28N 34°15' W 119°16'0 0.0
2018-Feb-15 06:58N 34°15' W 119°16'0 0.0
2018-Feb-15 06:25N 34°15' W 119°16'0 0.0
2018-Feb-15 05:58N 34°15' W 119°16'0 0.0
2018-Feb-15 05:28N 34°15' W 119°16'0 0.0
2018-Feb-15 04:58N 34°15' W 119°16'0 0.0
2018-Feb-15 04:28N 34°15' W 119°16'0 0.0
2018-Feb-15 03:58N 34°15' W 119°16'0 0.0
2018-Feb-15 02:58N 34°15' W 119°16'0 0.0
2018-Feb-15 02:28N 34°15' W 119°16'0 0.0
2018-Feb-15 01:58N 34°15' W 119°16'0 0.0
2018-Feb-15 01:28N 34°15' W 119°16'0 0.0
2018-Feb-15 00:58N 34°15' W 119°16'0 0.0
2018-Feb-15 00:28N 34°15' W 119°16'0 0.0
2018-Feb-14 23:58N 34°15' W 119°16'0 0.0
2018-Feb-14 23:28N 34°15' W 119°16'0 0.0
2018-Feb-14 22:58N 34°15' W 119°16'0 0.0
2018-Feb-14 22:28N 34°15' W 119°16'0 0.0
2018-Feb-14 21:58N 34°15' W 119°16'0 0.0
2018-Feb-14 21:28N 34°15' W 119°16'0 0.0
2018-Feb-14 20:58N 34°15' W 119°16'0 0.0
2018-Feb-14 20:28N 34°15' W 119°16'0 0.0
2018-Feb-14 19:58N 34°15' W 119°16'0 0.0
2018-Feb-14 19:28N 34°15' W 119°16'0 0.0
2018-Feb-14 18:58N 34°15' W 119°16'0 0.0
2018-Feb-14 18:28N 34°15' W 119°16'0 0.0
2018-Feb-14 17:58N 34°15' W 119°16'0 0.0
2018-Feb-14 17:22N 34°15' W 119°16'0 0.0
2018-Feb-14 16:58N 34°15' W 119°16'0 0.0
2018-Feb-14 16:25N 34°15' W 119°16'0 0.0
2018-Feb-14 15:58N 34°15' W 119°16'0 0.0
2018-Feb-14 15:28N 34°15' W 119°16'0 0.0
2018-Feb-14 14:58N 34°15' W 119°16'0 0.0
2018-Feb-14 14:28N 34°15' W 119°16'0 0.0
2018-Feb-14 13:58N 34°15' W 119°16'0 0.0
2018-Feb-14 13:28N 34°15' W 119°16'0 0.0
2018-Feb-14 12:58N 34°15' W 119°16'0 0.0
2018-Feb-14 12:28N 34°15' W 119°16'0 0.0
2018-Feb-14 11:58N 34°15' W 119°16'0 0.0
2018-Feb-14 11:28N 34°15' W 119°16'0 0.0
2018-Feb-14 10:58N 34°15' W 119°16'0 0.0
2018-Feb-14 10:28N 34°15' W 119°16'0 0.0
2018-Feb-14 09:58N 34°15' W 119°16'0 0.0
2018-Feb-14 09:28N 34°15' W 119°16'0 0.0
2018-Feb-14 08:58N 34°15' W 119°16'0 0.0
2018-Feb-14 08:28N 34°15' W 119°16'0 0.0
2018-Feb-14 07:52N 34°15' W 119°16'0 0.0
2018-Feb-14 07:28N 34°15' W 119°16'0 0.0
2018-Feb-14 06:58N 34°15' W 119°16'0 0.0
2018-Feb-14 06:28N 34°15' W 119°16'0 0.0
2018-Feb-14 05:58N 34°15' W 119°16'0 0.0
2018-Feb-14 05:28N 34°15' W 119°16'0 0.0
2018-Feb-14 04:58N 34°15' W 119°16'0 0.0
2018-Feb-14 04:25N 34°15' W 119°16'0 0.0
2018-Feb-14 03:58N 34°15' W 119°16'0 0.0
2018-Feb-14 03:28N 34°15' W 119°16'0 0.0
2018-Feb-14 02:58N 34°15' W 119°16'0 0.0
2018-Feb-14 02:28N 34°15' W 119°16'0 0.0
2018-Feb-14 01:49N 34°15' W 119°16'0 0.0
2018-Feb-14 01:28N 34°15' W 119°16'0 0.0
2018-Feb-14 00:58N 34°15' W 119°16'0 0.0
2018-Feb-14 00:28N 34°15' W 119°16'0 0.0
2018-Feb-13 23:58N 34°15' W 119°16'0 0.0
2018-Feb-13 23:28N 34°15' W 119°16'0 0.0
2018-Feb-13 22:58N 34°15' W 119°16'0 0.0
2018-Feb-13 22:28N 34°15' W 119°16'0 0.0
2018-Feb-13 21:55N 34°15' W 119°16'0 0.0
2018-Feb-13 21:25N 34°15' W 119°16'0 0.0
2018-Feb-13 17:19N 34°15' W 119°16'0 0.0
2018-Feb-13 16:58N 34°15' W 119°16'0 0.0
2018-Feb-13 16:28N 34°15' W 119°16'0 0.0
2018-Feb-13 15:58N 34°15' W 119°16'0 0.0
2018-Feb-13 15:25N 34°15' W 119°16'0 0.0
2018-Feb-13 14:55N 34°15' W 119°16'0 0.0
2018-Feb-13 14:28N 34°15' W 119°16'0 0.0
2018-Feb-13 13:58N 34°15' W 119°16'0 0.0
2018-Feb-13 13:28N 34°15' W 119°16'0 0.0
2018-Feb-13 12:58N 34°15' W 119°16'0 0.0
2018-Feb-13 12:28N 34°15' W 119°16'0 0.0
2018-Feb-13 11:58N 34°15' W 119°16'0 0.0
2018-Feb-13 11:28N 34°15' W 119°16'0 0.0
2018-Feb-13 10:58N 34°15' W 119°16'0 0.0
2018-Feb-13 10:25N 34°15' W 119°16'0 0.0
2018-Feb-13 09:58N 34°15' W 119°16'0 0.0
2018-Feb-13 09:28N 34°15' W 119°16'0 0.0
2018-Feb-13 08:58N 34°15' W 119°16'0 0.0
2018-Feb-13 08:28N 34°15' W 119°16'0 0.0
2018-Feb-13 07:58N 34°15' W 119°16'0 0.0
2018-Feb-13 07:28N 34°15' W 119°16'0 0.0
2018-Feb-13 06:58N 34°15' W 119°16'0 0.0
2018-Feb-13 06:28N 34°15' W 119°16'0 0.0
2018-Feb-13 05:52N 34°15' W 119°16'0 0.0
2018-Feb-13 05:28N 34°15' W 119°16'0 0.0
2018-Feb-13 04:58N 34°15' W 119°16'0 0.0
2018-Feb-13 04:28N 34°15' W 119°16'0 0.0
2018-Feb-13 03:58N 34°15' W 119°16'0 0.0
2018-Feb-13 03:28N 34°15' W 119°16'0 0.0
2018-Feb-13 02:55N 34°15' W 119°16'0 0.0
2018-Feb-13 02:28N 34°15' W 119°16'0 0.0
2018-Feb-13 01:58N 34°15' W 119°16'0 0.0
2018-Feb-13 01:28N 34°15' W 119°16'0 0.0
2018-Feb-13 00:58N 34°15' W 119°16'0 0.0
2018-Feb-13 00:28N 34°15' W 119°16'0 0.0
2018-Feb-12 23:55N 34°15' W 119°16'0 0.0
2018-Feb-12 23:28N 34°15' W 119°16'0 0.0
2018-Feb-12 22:58N 34°15' W 119°16'0 0.0
2018-Feb-12 22:28N 34°15' W 119°16'0 0.0
2018-Feb-12 21:49N 34°15' W 119°16'0 0.0
2018-Feb-12 21:25N 34°15' W 119°16'0 0.0
2018-Feb-12 20:46N 34°15' W 119°16'0 0.0
2018-Feb-12 20:28N 34°15' W 119°16'0 0.0
2018-Feb-12 19:58N 34°15' W 119°16'0 0.0
2018-Feb-12 19:25N 34°15' W 119°16'0 0.0
2018-Feb-12 18:55N 34°15' W 119°16'0 0.0
2018-Feb-12 18:28N 34°15' W 119°16'0 0.0
2018-Feb-12 17:52N 34°15' W 119°16'0 0.0
2018-Feb-12 17:25N 34°15' W 119°16'0 0.0
2018-Feb-12 16:58N 34°15' W 119°16'0 0.0
2018-Feb-12 16:25N 34°15' W 119°16'0 0.0
2018-Feb-12 15:58N 34°15' W 119°16'0 0.0
2018-Feb-12 15:16N 34°15' W 119°16'0 0.0
2018-Feb-12 14:55N 34°15' W 119°16'0 0.0
2018-Feb-12 14:25N 34°15' W 119°16'0 0.0
2018-Feb-12 13:58N 34°15' W 119°16'0 0.0
2018-Feb-12 13:25N 34°15' W 119°16'0 0.0
2018-Feb-12 12:58N 34°15' W 119°16'0 0.0
2018-Feb-12 12:28N 34°15' W 119°16'0 0.0
2018-Feb-12 11:58N 34°15' W 119°16'0 0.0
2018-Feb-12 11:28N 34°15' W 119°16'0 0.0
2018-Feb-12 10:58N 34°15' W 119°16'0 0.0
2018-Feb-12 10:25N 34°15' W 119°16'0 0.0
2018-Feb-12 09:58N 34°15' W 119°16'0 0.0
2018-Feb-12 09:28N 34°15' W 119°16'0 0.0
2018-Feb-12 08:58N 34°15' W 119°16'0 0.0
2018-Feb-12 08:25N 34°15' W 119°16'0 0.0
2018-Feb-12 07:58N 34°15' W 119°16'0 0.0
2018-Feb-12 07:28N 34°15' W 119°16'0 0.0
2018-Feb-12 06:58N 34°15' W 119°16'0 0.0
2018-Feb-12 06:25N 34°15' W 119°16'0 0.0
2018-Feb-12 05:55N 34°15' W 119°16'0 0.0
2018-Feb-12 05:28N 34°15' W 119°16'0 0.0
2018-Feb-12 04:58N 34°15' W 119°16'0 0.0
2018-Feb-12 04:28N 34°15' W 119°16'0 0.0
2018-Feb-12 03:58N 34°15' W 119°16'0 0.0
2018-Feb-12 03:28N 34°15' W 119°16'0 0.0
2018-Feb-12 02:55N 34°15' W 119°16'2 4.5
2018-Feb-12 02:29N 34°15' W 119°18'7 9.5
2018-Feb-12 01:48N 34°13' W 119°26'3 9.7
2018-Feb-12 01:29N 34°13' W 119°30'5 9.6
2018-Feb-12 00:55N 34°11' W 119°36'4 9.6
2018-Feb-12 00:29N 34°10' W 119°41'5 9.9
2018-Feb-11 23:58N 34°09' W 119°47'510.0
2018-Feb-11 23:29N 34°07' W 119°52'510.1
2018-Feb-11 22:57N 34°05' W 119°58'510.0
2018-Feb-11 22:30N 34°04' W 120°03'5 9.8
2018-Feb-11 21:57N 34°02' W 120°10'4 8.1
2018-Feb-11 21:28N 34°01' W 120°14'0 0.1
2018-Feb-11 21:00N 34°01' W 120°14'0 0.0
2018-Feb-11 20:29N 34°01' W 120°14'0 0.0
2018-Feb-11 19:55N 34°01' W 120°14'0 0.4
2018-Feb-11 19:20N 34°01' W 120°14'0 0.0
2018-Feb-11 18:55N 34°01' W 120°14'0 0.0
2018-Feb-11 18:27N 34°01' W 120°14'0 0.7
2018-Feb-11 18:00N 34°02' W 120°14'0 0.0
2018-Feb-11 17:28N 34°02' W 120°14'0 0.0
2018-Feb-11 16:58N 34°02' W 120°14'1 1.5
2018-Feb-11 16:30N 34°02' W 120°15'1 2.8
2018-Feb-11 16:00N 34°03' W 120°16'0 0.1
2018-Feb-11 15:27N 34°03' W 120°16'0 0.0
2018-Feb-11 15:00N 34°03' W 120°16'3 5.8
2018-Feb-11 14:30N 34°03' W 120°19'2 2.8
2018-Feb-11 13:58N 34°03' W 120°21'0 0.0
2018-Feb-11 13:25N 34°03' W 120°21'0 0.1
2018-Feb-11 12:58N 34°03' W 120°21'0 0.0
2018-Feb-11 12:25N 34°03' W 120°21'0 0.0
2018-Feb-11 11:43N 34°03' W 120°21'0 0.0
2018-Feb-11 11:28N 34°03' W 120°21'0 0.0
2018-Feb-11 10:58N 34°03' W 120°21'0 0.0
2018-Feb-11 10:28N 34°03' W 120°21'0 0.0
2018-Feb-11 09:55N 34°03' W 120°21'0 0.0
2018-Feb-11 09:28N 34°03' W 120°21'0 0.0
2018-Feb-11 08:58N 34°03' W 120°21'0 0.0
2018-Feb-11 08:28N 34°03' W 120°21'0 0.0
2018-Feb-11 07:58N 34°03' W 120°21'0 0.0
2018-Feb-11 07:28N 34°03' W 120°21'0 0.0
2018-Feb-11 06:49N 34°03' W 120°21'0 0.1
2018-Feb-11 06:28N 34°03' W 120°21'0 0.0
2018-Feb-11 05:58N 34°03' W 120°21'0 0.1
2018-Feb-11 05:28N 34°03' W 120°21'0 0.1
2018-Feb-11 04:55N 34°03' W 120°21'0 0.0
2018-Feb-11 04:28N 34°03' W 120°21'0 0.0
2018-Feb-11 03:52N 34°03' W 120°21'0 0.0
2018-Feb-11 03:16N 34°03' W 120°21'0 0.0
2018-Feb-11 02:58N 34°03' W 120°21'0 0.0
2018-Feb-11 02:30N 34°03' W 120°21'4 7.4
2018-Feb-11 02:00N 34°02' W 120°17'3 4.8
2018-Feb-11 01:28N 34°01' W 120°14'0 0.0
2018-Feb-11 00:58N 34°01' W 120°14'0 0.4
2018-Feb-11 00:29N 34°01' W 120°14'1 2.0
2018-Feb-11 00:00N 34°01' W 120°13'0 0.0
2018-Feb-10 23:26N 34°01' W 120°13'0 0.1
2018-Feb-10 23:00N 34°01' W 120°13'1 2.3
2018-Feb-10 22:26N 34°01' W 120°14'0 0.0
2018-Feb-10 21:56N 34°01' W 120°14'0 0.0
2018-Feb-10 21:28N 34°01' W 120°14'0 0.0
2018-Feb-10 20:49N 34°01' W 120°14'1 4.0
2018-Feb-10 20:28N 34°01' W 120°13'0 0.0
2018-Feb-10 20:00N 34°01' W 120°13'0 0.0
2018-Feb-10 19:30N 34°01' W 120°13'0 0.0
2018-Feb-10 19:00N 34°01' W 120°13'1 0.9
2018-Feb-10 18:25N 34°01' W 120°12'0 0.0
2018-Feb-10 17:55N 34°01' W 120°12'0 0.0
2018-Feb-10 17:19N 34°01' W 120°12'1 2.7
2018-Feb-10 16:56N 34°01' W 120°13'0 0.0
2018-Feb-10 16:23N 34°01' W 120°13'0 0.0
2018-Feb-10 15:56N 34°01' W 120°13'0 0.1
2018-Feb-10 15:30N 34°01' W 120°13'4 8.7
2018-Feb-10 15:00N 34°03' W 120°08'5 9.3
2018-Feb-10 14:26N 34°04' W 120°02'5 9.2
2018-Feb-10 13:54N 34°05' W 119°57'4 8.5
2018-Feb-10 13:25N 34°06' W 119°52'4 8.7
2018-Feb-10 12:58N 34°08' W 119°47'4 9.1
2018-Feb-10 12:29N 34°09' W 119°42'5 9.5
2018-Feb-10 11:55N 34°10' W 119°36'4 9.7
2018-Feb-10 11:30N 34°11' W 119°31'6 9.7
2018-Feb-10 10:51N 34°13' W 119°24'4 9.4
2018-Feb-10 10:27N 34°14' W 119°19'3 6.5
2018-Feb-10 09:59N 34°15' W 119°16'0 0.0
2018-Feb-10 09:29N 34°15' W 119°16'0 0.0
2018-Feb-10 08:59N 34°15' W 119°16'0 0.0
2018-Feb-10 08:29N 34°15' W 119°16'0 0.0
2018-Feb-10 07:53N 34°15' W 119°16'0 0.0
2018-Feb-10 07:26N 34°15' W 119°16'0 0.0
2018-Feb-10 06:56N 34°15' W 119°16'0 0.0
2018-Feb-10 06:29N 34°15' W 119°16'0 0.0
2018-Feb-10 05:56N 34°15' W 119°16'0 0.0
2018-Feb-10 05:29N 34°15' W 119°16'0 0.0
2018-Feb-10 04:56N 34°15' W 119°16'0 0.0
2018-Feb-10 04:29N 34°15' W 119°16'0 0.0
2018-Feb-10 03:59N 34°15' W 119°16'0 0.0
2018-Feb-10 03:29N 34°15' W 119°16'0 0.0
2018-Feb-10 02:59N 34°15' W 119°16'0 0.0
2018-Feb-10 02:29N 34°15' W 119°16'0 0.0
2018-Feb-10 01:59N 34°15' W 119°16'0 0.0
2018-Feb-10 01:29N 34°15' W 119°16'0 0.0
2018-Feb-10 00:59N 34°15' W 119°16'  

Dump ship's entire track history